• Join FlightAware (Why Join?)
  • Login
  • US Flag 
Trick or treat! (Boo!!) 
08:36PM EDT


 

Airport Tracker/Info


-or-


 

Live Flight TrackerFlight Track Log ✈ AAL1326 ✈ 08-Apr-2013 ✈ KMCI - KORD

Flight Track Log - Related Links

Times and Time Zones

All times are in EDT time to prevent confusion due to time zone crossing. See the AAL1326 flight status page for this flight to view local times or setup timezone preferences in your user account.

Time Position Orientation Groundspeed Altitude Reporting Facility
EDT Latitude Longitude Course Direction KTS MPH feet Rate Location/Type
04:51PM 39.2833 -94.7167 47° Northeast 161 185 1,700  Level Kansas City TRACON
04:52PM 39.2464 -94.7225 187° South 162 186 2,900 1,920 Climbing Kansas City Center
04:53PM 39.4094 -94.5597 46° Northeast  Level FlightAware Approximate
04:53PM 39.1917 -94.7378 192° South 207 238 5,000  Level Kansas City Center
04:54PM 39.4884 -94.4693 41° Northeast  Level FlightAware Approximate
04:54PM 39.1722 -94.6614 108° East 275 316 7,000  Level Kansas City Center
04:55PM 39.5671 -94.3781 45° Northeast  Level FlightAware Approximate
04:55PM 39.2436 -94.5900 38° Northeast 293 337 10,400  Level Kansas City Center
04:56PM 39.6420 -94.2818 45° Northeast  Level FlightAware Approximate
04:56PM 39.3189 -94.5256 34° Northeast 342 394 12,400  Level Kansas City Center
04:57PM 39.7112 -94.1877 47° Northeast  Level FlightAware Approximate
04:57PM 39.4181 -94.4378 34° Northeast 384 442 15,500  Level Kansas City Center
04:58PM 39.5044 -94.3478 39° Northeast 414 476 18,300 2,520 Climbing Kansas City Center
04:59PM 39.6122 -94.2311 40° Northeast 450 518 20,700 2,340 Climbing Kansas City Center
05:00PM 39.7061 -94.1261 41° Northeast 465 535 23,300 2,700 Climbing Kansas City Center
05:01PM 39.8150 -94.0025 41° Northeast 469 540 26,300 2,640 Climbing Kansas City Center
05:02PM 39.8914 -93.8517 57° Northeast 481 554 28,800 2,220 Climbing Kansas City Center
05:03PM 39.9381 -93.6911 69° East 481 554 31,000 1,980 Climbing Kansas City Center
05:04PM 39.9825 -93.5275 70° East 483 556 32,900 960 Climbing Kansas City Center
05:05PM 40.0275 -93.3611 70° East 489 563 33,000  Climbing Kansas City Center
05:06PM 40.0769 -93.1914 69° East 501 577 33,000  Level Kansas City Center
05:07PM 40.1275 -93.0114 70° East 503 579 33,000  Level Kansas City Center
05:08PM 40.1789 -92.8181 71° East 504 580 33,000  Level Kansas City Center
05:09PM 40.2242 -92.6525 70° East 504 580 33,000  Level Kansas City Center
05:10PM 40.2758 -92.4619 70° East 499 574 33,000  Level Kansas City Center
05:11PM 40.3236 -92.2819 71° East 506 582 33,000  Level Kansas City Center
05:12PM 40.3683 -92.1114 71° East 503 579 33,000  Level Kansas City Center
05:13PM 40.4136 -91.9389 71° East 504 580 33,000  Level Kansas City Center
05:14PM 40.4594 -91.7647 71° East 507 583 33,000  Level Kansas City Center
05:15PM 40.5153 -91.5536 71° East 513 590 33,000  Level Chicago Center
05:16PM 40.5628 -91.3769 70° East 517 595 33,000  Level Chicago Center
05:17PM 40.6175 -91.2194 65° Northeast 517 595 33,000  Level Chicago Center
05:18PM 40.6881 -91.0103 66° East 520 598 33,000  Level Chicago Center
05:19PM 40.7483 -90.8361 65° Northeast 520 598 33,000 -180 Level Chicago Center
05:20PM 40.8064 -90.6619 66° East 519 597 32,700 -900 Descending Chicago Center
05:22PM 40.8644 -90.4875 66° East 517 595 31,200 -1,440 Descending Chicago Center
05:23PM 40.9242 -90.3083 66° East 527 606 29,800 -1,500 Descending Chicago Center
05:24PM 40.9903 -90.1139 66° East 528 608 28,200 -1,440 Descending Chicago Center
05:25PM 41.0442 -89.9439 67° East 537 618 26,900 -1,380 Descending Chicago Center
05:26PM 41.1047 -89.7600 66° East 540 621 25,400 -1,800 Descending Chicago Center
05:27PM 41.1750 -89.5475 66° East 524 603 23,300 -2,220 Descending Chicago Center
05:28PM 41.2400 -89.3903 61° Northeast 491 565 20,900 -2,340 Descending Chicago Center
05:29PM 41.3006 -89.2422 61° Northeast 460 529 18,500 -2,400 Descending Chicago Center
05:30PM 41.3553 -89.0992 63° Northeast 433 498 16,000 -2,400 Descending Chicago Center
05:31PM 41.4108 -88.9617 62° Northeast 425 489 13,600 -2,280 Descending Chicago Center
05:32PM 41.4644 -88.8272 62° Northeast 416 479 11,300 -1,260 Descending Chicago Center
05:33PM 41.5242 -88.6742 62° Northeast 395 455 11,000 -180 Descending Chicago Center
05:34PM 41.5753 -88.5475 62° Northeast 390 449 11,000  Level Chicago Center
05:35PM 41.6308 -88.4261 58° Northeast 385 443 11,000  Level Chicago Center
05:36PM 41.6981 -88.3147 51° Northeast 383 441 11,000 -420 Level Chicago Center
05:37PM 41.7608 -88.2050 52° Northeast 376 433 10,200 -1,020 Descending Chicago Center
05:38PM 41.8158 -88.1119 52° Northeast 332 382 9,000 -1,440 Descending Chicago Center
05:39PM 41.8769 -88.0011 53° Northeast 312 359 7,200 -1,320 Descending Chicago Center
05:40PM 41.8833 -87.9333 83° East 318 366 7,000 -180 Descending Chicago TRACON
05:41PM 41.8833 -87.8500 90° East 287 330 7,000 -540 Level Chicago TRACON
05:42PM 41.8833 -87.7333 90° East 263 303 6,000 -1,020 Descending Chicago TRACON
05:43PM 41.9167 -87.6667 56° Northeast 248 285 4,900 -1,320 Descending Chicago TRACON
05:44PM 41.9500 -87.7000 323° Northwest 179 206 3,400 -1,500 Descending Chicago TRACON